createdAt,value
2023-05-16T00:01:47.148Z,99938.22
2023-05-16T00:04:13.846Z,99939.41
2023-05-16T00:06:40.746Z,99936.72
2023-05-16T00:09:07.630Z,99934.50
2023-05-16T00:11:34.447Z,99924.69
2023-05-16T00:14:01.637Z,99923.50
2023-05-16T00:16:30.241Z,99925.56
2023-05-16T00:19:01.293Z,99919.25
2023-05-16T00:21:28.014Z,99924.16
2023-05-16T00:23:54.510Z,99915.41
2023-05-16T00:26:21.800Z,99911.28
2023-05-16T00:28:48.559Z,99910.78
2023-05-16T00:31:15.138Z,99899.88
2023-05-16T00:33:41.625Z,99900.03
2023-05-16T00:36:08.204Z,99904.03
2023-05-16T00:38:34.774Z,99902.19
2023-05-16T00:41:01.319Z,99897.19
2023-05-16T00:43:27.962Z,99902.25
2023-05-16T00:45:54.379Z,99895.94
2023-05-16T00:48:20.927Z,99891.91
2023-05-16T00:50:47.399Z,99897.97
2023-05-16T00:53:13.880Z,99899.59
2023-05-16T00:55:40.857Z,99895.94
2023-05-16T00:58:07.357Z,99894.50
2023-05-16T01:00:34.147Z,99889.03
2023-05-16T01:03:01.118Z,99884.78
2023-05-16T01:05:28.554Z,99889.03
2023-05-16T01:07:55.434Z,99874.50
2023-05-16T01:10:21.891Z,99874.31
2023-05-16T01:13:08.668Z,99873.69
2023-05-16T01:16:05.498Z,99875.03
2023-05-16T01:18:54.017Z,99866.81
2023-05-16T01:21:39.037Z,99870.53
2023-05-16T01:24:16.110Z,99872.75
2023-05-16T01:26:43.976Z,99860.88
2023-05-16T01:29:10.759Z,99864.88
2023-05-16T01:31:37.205Z,99859.34
2023-05-16T01:34:03.760Z,99860.94
2023-05-16T01:36:39.082Z,99850.66
2023-05-16T01:39:14.943Z,99853.97
2023-05-16T01:42:04.501Z,99850.78
2023-05-16T01:44:37.465Z,99849.06
2023-05-16T01:47:09.643Z,99845.38
2023-05-16T01:49:44.143Z,99838.94
2023-05-16T01:52:22.171Z,99843.22
2023-05-16T01:54:53.301Z,99845.47
2023-05-16T01:57:22.077Z,99839.94
2023-05-16T01:59:48.686Z,99824.13
2023-05-16T02:02:18.430Z,99823.28
2023-05-16T02:04:44.920Z,99817.25
2023-05-16T02:07:12.407Z,99814.13
2023-05-16T02:09:38.844Z,99811.38
2023-05-16T02:12:05.511Z,99811.75
2023-05-16T02:14:31.916Z,99812.78
2023-05-16T02:16:58.607Z,99805.72
2023-05-16T02:19:25.102Z,99813.84
2023-05-16T02:21:51.566Z,99801.44
2023-05-16T02:24:17.954Z,99801.19
2023-05-16T02:26:44.435Z,99797.25
2023-05-16T02:29:11.107Z,99793.06
2023-05-16T02:31:37.678Z,99792.38
2023-05-16T02:34:04.179Z,99793.75
2023-05-16T02:36:30.894Z,99790.94
2023-05-16T02:38:57.358Z,99785.06
2023-05-16T02:41:24.046Z,99786.59
2023-05-16T02:43:50.510Z,99783.69
2023-05-16T02:46:31.224Z,99786.91
2023-05-16T02:48:57.887Z,99785.59
2023-05-16T02:51:27.622Z,99776.91
2023-05-16T02:53:56.940Z,99777.19
2023-05-16T02:56:23.372Z,99775.81
2023-05-16T02:58:50.060Z,99774.81
2023-05-16T03:01:17.317Z,99772.59
2023-05-16T03:03:43.854Z,99770.41
2023-05-16T03:06:10.439Z,99775.06
2023-05-16T03:08:36.926Z,99769.03
2023-05-16T03:11:03.398Z,99768.63
2023-05-16T03:13:30.202Z,99764.94
2023-05-16T03:15:56.658Z,99765.94
2023-05-16T03:18:23.179Z,99767.94
2023-05-16T03:20:49.627Z,99766.34
2023-05-16T03:23:16.102Z,99767.16
2023-05-16T03:25:43.177Z,99776.66
2023-05-16T03:28:09.747Z,99768.75
2023-05-16T03:30:36.295Z,99771.97
2023-05-16T03:33:03.828Z,99768.38
2023-05-16T03:35:34.639Z,99767.59
2023-05-16T03:38:01.258Z,99766.09
2023-05-16T03:40:27.696Z,99769.34
2023-05-16T03:42:54.120Z,99765.50
2023-05-16T03:45:20.784Z,99762.47
2023-05-16T03:47:49.059Z,99764.47
2023-05-16T03:50:16.353Z,99760.97
2023-05-16T03:52:42.828Z,99767.19
2023-05-16T03:55:09.594Z,99759.16
2023-05-16T03:57:38.366Z,99756.47
2023-05-16T04:00:08.068Z,99764.38
2023-05-16T04:02:34.682Z,99761.03
2023-05-16T04:05:01.131Z,99761.13
2023-05-16T04:07:27.648Z,99765.75
2023-05-16T04:09:55.649Z,99764.94
2023-05-16T04:12:23.069Z,99765.31
2023-05-16T04:14:49.504Z,99760.13
2023-05-16T04:17:16.054Z,99770.75
2023-05-16T04:19:42.597Z,99765.16
2023-05-16T04:22:09.041Z,99762.75
2023-05-16T04:24:35.418Z,99758.47
2023-05-16T04:27:02.139Z,99754.41
2023-05-16T04:29:28.568Z,99752.59
2023-05-16T04:31:55.087Z,99752.97
2023-05-16T04:34:23.090Z,99747.38
2023-05-16T04:36:49.471Z,99750.78
2023-05-16T04:39:16.147Z,99751.19
2023-05-16T04:41:42.561Z,99752.09
2023-05-16T04:44:08.964Z,99752.66
2023-05-16T04:46:35.433Z,99756.53
2023-05-16T04:49:02.015Z,99756.28
2023-05-16T04:51:28.554Z,99764.03
2023-05-16T04:53:55.324Z,99765.22
2023-05-16T04:56:22.388Z,99762.75
2023-05-16T04:58:48.776Z,99767.75
2023-05-16T05:01:15.980Z,99773.69
2023-05-16T05:03:42.436Z,99773.09
2023-05-16T05:06:08.838Z,99768.31
2023-05-16T05:08:35.263Z,99767.50
2023-05-16T05:11:01.786Z,99763.31
2023-05-16T05:13:28.305Z,99765.13
2023-05-16T05:15:54.747Z,99763.81
2023-05-16T05:18:21.194Z,99758.09
2023-05-16T05:20:47.753Z,99761.22
2023-05-16T05:23:14.187Z,99757.22
2023-05-16T05:25:40.807Z,99764.63
2023-05-16T05:28:07.246Z,99756.63
2023-05-16T05:30:33.655Z,99761.88
2023-05-16T05:33:00.142Z,99765.06
2023-05-16T05:35:27.049Z,99765.19
2023-05-16T05:37:53.641Z,99763.41
2023-05-16T05:40:20.071Z,99755.03
2023-05-16T05:42:47.285Z,99758.84
2023-05-16T05:45:16.072Z,99757.25
2023-05-16T05:47:43.358Z,99752.06
2023-05-16T05:50:13.393Z,99747.69
2023-05-16T05:52:44.072Z,99756.53
2023-05-16T05:55:10.564Z,99751.81
2023-05-16T05:57:37.062Z,99755.72
2023-05-16T06:00:05.082Z,99754.22
2023-05-16T06:02:35.470Z,99754.31
2023-05-16T06:05:05.347Z,99763.59
2023-05-16T06:07:32.622Z,99763.47
2023-05-16T06:10:08.583Z,99762.13
2023-05-16T06:12:37.884Z,99770.16
2023-05-16T06:15:14.066Z,99772.94
2023-05-16T06:17:41.730Z,99768.19
2023-05-16T06:20:08.563Z,99765.44
2023-05-16T06:22:35.121Z,99768.56
2023-05-16T06:25:03.025Z,99774.97
2023-05-16T06:27:30.205Z,99777.50
2023-05-16T06:29:57.630Z,99784.19
2023-05-16T06:32:26.362Z,99786.41
2023-05-16T06:34:53.396Z,99796.06
2023-05-16T06:37:29.002Z,99801.13
2023-05-16T06:40:02.898Z,99798.75
2023-05-16T06:42:29.667Z,99809.78
2023-05-16T06:44:56.151Z,99810.06
2023-05-16T06:47:22.993Z,99815.16
2023-05-16T06:49:51.295Z,99811.03
2023-05-16T06:52:19.237Z,99807.13
2023-05-16T06:54:50.746Z,99797.75
2023-05-16T06:57:24.236Z,99795.16
2023-05-16T06:59:51.574Z,99798.47
2023-05-16T07:02:23.975Z,99787.88
2023-05-16T07:04:53.125Z,99796.78
2023-05-16T07:07:19.639Z,99807.88
2023-05-16T07:09:46.151Z,99809.47
2023-05-16T07:12:12.670Z,99816.34
2023-05-16T07:14:39.371Z,99819.09
2023-05-16T07:17:06.064Z,99814.72
2023-05-16T07:19:32.705Z,99809.47
2023-05-16T07:21:59.699Z,99808.38
2023-05-16T07:24:26.296Z,99816.97
2023-05-16T07:26:52.790Z,99826.41
2023-05-16T07:29:19.338Z,99825.28
2023-05-16T07:31:46.256Z,99805.28
2023-05-16T07:34:12.864Z,99827.97
2023-05-16T07:36:39.359Z,99825.22
2023-05-16T07:39:11.406Z,99804.56
2023-05-16T07:41:37.905Z,99810.81
2023-05-16T07:44:04.400Z,99828.59
2023-05-16T07:46:31.306Z,99834.13
2023-05-16T07:48:58.222Z,99828.94
2023-05-16T07:51:24.785Z,99819.50
2023-05-16T07:53:52.009Z,99814.66
2023-05-16T07:56:18.587Z,99830.81
2023-05-16T07:58:45.268Z,99826.72
2023-05-16T08:01:12.117Z,99828.75
2023-05-16T08:03:38.756Z,99839.41
2023-05-16T08:06:05.659Z,99829.94
2023-05-16T08:08:32.297Z,99830.03
2023-05-16T08:10:58.743Z,99830.19
2023-05-16T08:13:25.226Z,99838.59
2023-05-16T08:15:51.963Z,99827.53
2023-05-16T08:18:20.716Z,99826.00
2023-05-16T08:20:48.600Z,99830.19
2023-05-16T08:23:15.175Z,99817.69
2023-05-16T08:25:41.843Z,99807.75
2023-05-16T08:28:08.505Z,99811.84
2023-05-16T08:30:34.971Z,99805.16
2023-05-16T08:33:04.952Z,99793.38
2023-05-16T08:35:31.790Z,99801.22
2023-05-16T08:37:58.325Z,99801.88
2023-05-16T08:40:27.196Z,99808.38
2023-05-16T08:42:54.292Z,99811.41
2023-05-16T08:45:22.601Z,99820.53
2023-05-16T08:47:51.647Z,99812.31
2023-05-16T08:50:18.518Z,99819.75
2023-05-16T08:52:48.494Z,99828.63
2023-05-16T08:55:16.141Z,99826.06
2023-05-16T08:57:43.224Z,99817.06
2023-05-16T09:00:13.350Z,99821.63
2023-05-16T09:02:44.340Z,99828.38
2023-05-16T09:05:15.623Z,99837.22
2023-05-16T09:07:43.027Z,99837.47
2023-05-16T09:10:10.845Z,99835.81
2023-05-16T09:12:39.469Z,99851.06
2023-05-16T09:15:07.497Z,99855.34
2023-05-16T09:17:45.600Z,99853.56
2023-05-16T09:20:20.102Z,99862.13
2023-05-16T09:22:52.809Z,99849.09
2023-05-16T09:25:29.206Z,99857.41
2023-05-16T09:27:59.464Z,99864.34
2023-05-16T09:30:31.411Z,99866.88
2023-05-16T09:32:58.965Z,99875.69
2023-05-16T09:37:55.894Z,99881.94
2023-05-16T09:40:25.368Z,99892.50
2023-05-16T09:43:09.722Z,99896.25
2023-05-16T09:45:36.652Z,99900.97
2023-05-16T09:48:10.774Z,99905.38
2023-05-16T09:50:37.957Z,99901.56
2023-05-16T09:53:05.202Z,99900.94
2023-05-16T09:55:32.350Z,99911.66
2023-05-16T09:57:58.834Z,99911.47
2023-05-16T10:00:33.256Z,99904.69
2023-05-16T10:03:04.274Z,99912.53
2023-05-16T10:05:31.694Z,99903.47
2023-05-16T10:07:58.394Z,99905.28
2023-05-16T10:10:25.221Z,99909.97
2023-05-16T10:12:53.005Z,99914.66
2023-05-16T10:15:20.879Z,99906.38
2023-05-16T10:17:53.181Z,99913.78
2023-05-16T10:20:21.257Z,99916.09
2023-05-16T10:22:50.298Z,99909.16
2023-05-16T10:25:29.137Z,99917.19
2023-05-16T10:27:56.395Z,99910.41
2023-05-16T10:30:22.864Z,99916.28
2023-05-16T10:32:56.813Z,99910.31
2023-05-16T10:35:25.966Z,99904.16
2023-05-16T10:37:53.338Z,99893.72
2023-05-16T10:40:22.065Z,99892.69
2023-05-16T10:43:04.531Z,99881.25
2023-05-16T10:45:43.819Z,99887.97
2023-05-16T10:48:15.805Z,99885.19
2023-05-16T10:50:48.105Z,99887.97
2023-05-16T10:53:31.933Z,99894.22
2023-05-16T10:56:10.802Z,99887.16
2023-05-16T10:58:44.149Z,99888.03
2023-05-16T11:01:25.153Z,99888.25
2023-05-16T11:04:02.728Z,99890.72
2023-05-16T11:06:57.933Z,99887.53
2023-05-16T11:09:27.878Z,99896.81
2023-05-16T11:11:57.597Z,99897.88
2023-05-16T11:14:26.883Z,99900.56
2023-05-16T11:17:34.767Z,99899.66
2023-05-16T11:20:04.890Z,99884.09
2023-05-16T11:22:41.367Z,99865.53
2023-05-16T11:25:09.465Z,99858.81
2023-05-16T11:27:47.742Z,99846.00
2023-05-16T11:30:17.655Z,99846.00
2023-05-16T11:32:45.935Z,99837.44
2023-05-16T11:35:15.291Z,99838.06
2023-05-16T11:37:42.789Z,99837.97
2023-05-16T11:40:11.476Z,99856.59
2023-05-16T11:42:51.946Z,99854.00
2023-05-16T11:45:31.624Z,99849.63
2023-05-16T11:48:03.011Z,99853.38
2023-05-16T11:50:30.866Z,99849.69
2023-05-16T11:52:57.958Z,99844.75
2023-05-16T11:58:02.073Z,99842.28
2023-05-16T12:00:35.750Z,99832.06
2023-05-16T12:03:04.587Z,99829.47
2023-05-16T12:05:41.229Z,99824.13
2023-05-16T12:08:12.810Z,99818.22
2023-05-16T12:10:39.354Z,99812.94
2023-05-16T12:13:06.055Z,99802.09
2023-05-16T12:15:33.678Z,99803.72
2023-05-16T12:18:00.399Z,99808.72
2023-05-16T12:20:27.554Z,99807.84
2023-05-16T12:22:58.368Z,99806.38
2023-05-16T12:25:50.061Z,99808.91
2023-05-16T12:28:16.725Z,99820.16
2023-05-16T12:30:49.266Z,99821.38
2023-05-16T12:33:17.146Z,99823.50
2023-05-16T12:35:45.900Z,99817.75
2023-05-16T12:38:18.359Z,99819.34
2023-05-16T12:40:46.195Z,99814.75
2023-05-16T12:43:23.372Z,99815.97
2023-05-16T12:45:54.959Z,99809.28
2023-05-16T12:48:22.952Z,99817.91
2023-05-16T12:50:52.426Z,99818.75
2023-05-16T12:53:19.491Z,99811.03
2023-05-16T12:55:46.661Z,99811.19
2023-05-16T12:58:13.504Z,99808.59
2023-05-16T13:00:46.416Z,99810.53
2023-05-16T13:03:13.015Z,99811.84
2023-05-16T13:05:39.665Z,99821.50
2023-05-16T13:08:07.577Z,99815.00
2023-05-16T13:10:34.104Z,99808.91
2023-05-16T13:13:00.642Z,99805.75
2023-05-16T13:15:27.631Z,99812.66
2023-05-16T13:17:54.805Z,99802.41
2023-05-16T13:20:21.783Z,99819.59
2023-05-16T13:22:48.496Z,99813.84
2023-05-16T13:25:15.033Z,99817.38
2023-05-16T13:27:41.785Z,99810.56
2023-05-16T13:30:08.822Z,99806.44
2023-05-16T13:32:35.584Z,99794.41
2023-05-16T13:35:04.059Z,99803.31
2023-05-16T13:37:30.871Z,99810.28
2023-05-16T13:39:57.345Z,99815.75
2023-05-16T13:42:23.921Z,99814.25
2023-05-16T13:44:51.536Z,99818.84
2023-05-16T13:47:19.529Z,99814.41
2023-05-16T13:49:46.163Z,99805.06
2023-05-16T13:52:12.711Z,99809.56
2023-05-16T13:54:41.980Z,99821.31
2023-05-16T13:57:08.784Z,99810.03
2023-05-16T14:00:03.503Z,99808.63
2023-05-16T14:02:22.251Z,99801.94
2023-05-16T14:04:49.902Z,99802.59
2023-05-16T14:07:16.713Z,99795.94
2023-05-16T14:09:44.642Z,99796.00
2023-05-16T14:12:11.676Z,99806.75
2023-05-16T14:14:38.158Z,99793.00
2023-05-16T14:17:04.951Z,99795.88
2023-05-16T14:19:35.611Z,99802.28
2023-05-16T14:22:04.102Z,99805.78
2023-05-16T14:24:32.315Z,99815.22
2023-05-16T14:27:00.479Z,99801.38
2023-05-16T14:29:28.535Z,99800.41
2023-05-16T14:31:56.587Z,99795.44
2023-05-16T14:34:23.865Z,99788.81
2023-05-16T14:36:51.507Z,99787.94
2023-05-16T14:39:18.075Z,99782.00
2023-05-16T14:41:46.106Z,99790.63
2023-05-16T14:44:12.914Z,99795.97
2023-05-16T14:46:39.728Z,99790.63
2023-05-16T14:49:06.337Z,99793.97
2023-05-16T14:51:33.192Z,99786.09
2023-05-16T14:54:00.701Z,99785.44
2023-05-16T14:56:28.822Z,99774.94
2023-05-16T14:58:56.970Z,99776.78
2023-05-16T15:01:25.299Z,99774.72
2023-05-16T15:03:55.947Z,99772.00
2023-05-16T15:06:23.182Z,99779.09
2023-05-16T15:08:51.050Z,99790.41
2023-05-16T15:11:17.924Z,99779.78
2023-05-16T15:13:44.862Z,99778.97
2023-05-16T15:16:12.439Z,99779.78
2023-05-16T15:18:39.358Z,99783.28
2023-05-16T15:21:07.577Z,99791.97
2023-05-16T15:23:34.721Z,99783.28
2023-05-16T15:26:02.224Z,99797.16
2023-05-16T15:28:29.669Z,99791.97
2023-05-16T15:30:57.034Z,99794.56
2023-05-16T15:33:23.983Z,99789.34
2023-05-16T15:35:52.918Z,99784.81
2023-05-16T15:38:20.476Z,99788.56
2023-05-16T15:40:58.144Z,99793.66
2023-05-16T15:43:37.958Z,99795.97
2023-05-16T15:46:06.701Z,99800.84
2023-05-16T15:48:33.525Z,99806.75
2023-05-16T15:51:00.082Z,99797.88
2023-05-16T15:53:26.677Z,99799.44
2023-05-16T15:55:53.367Z,99795.13
2023-05-16T15:58:21.983Z,99793.28
2023-05-16T16:00:49.346Z,99791.47
2023-05-16T16:03:15.901Z,99788.97
2023-05-16T16:05:42.799Z,99792.34
2023-05-16T16:08:09.668Z,99791.34
2023-05-16T16:10:37.730Z,99779.88
2023-05-16T16:13:04.839Z,99769.22
2023-05-16T16:15:36.951Z,99764.50
2023-05-16T16:18:03.940Z,99766.97
2023-05-16T16:20:30.533Z,99751.25
2023-05-16T16:22:59.559Z,99759.09
2023-05-16T16:25:29.771Z,99769.19
2023-05-16T16:27:56.811Z,99766.66
2023-05-16T16:30:23.253Z,99773.78
2023-05-16T16:32:49.935Z,99774.63
2023-05-16T16:35:16.914Z,99776.06
2023-05-16T16:37:54.520Z,99782.09
2023-05-16T16:40:32.194Z,99783.84
2023-05-16T16:42:58.856Z,99789.06
2023-05-16T16:45:26.910Z,99791.66
2023-05-16T16:47:55.897Z,99795.22
2023-05-16T16:50:26.468Z,99786.63
2023-05-16T16:52:57.454Z,99784.69
2023-05-16T16:55:24.275Z,99780.16
2023-05-16T16:58:02.376Z,99788.78
2023-05-16T17:00:38.094Z,99790.31
2023-05-16T17:03:05.083Z,99780.66
2023-05-16T17:05:31.690Z,99785.72
2023-05-16T17:07:58.245Z,99795.78
2023-05-16T17:10:25.015Z,99796.59
2023-05-16T17:12:51.907Z,99792.19
2023-05-16T17:15:18.511Z,99791.22
2023-05-16T17:17:45.941Z,99788.63
2023-05-16T17:20:13.191Z,99786.22
2023-05-16T17:22:41.209Z,99794.78
2023-05-16T17:25:08.439Z,99791.22
2023-05-16T17:27:34.942Z,99794.47
2023-05-16T17:30:01.595Z,99802.19
2023-05-16T17:32:33.916Z,99800.25
2023-05-16T17:35:03.802Z,99800.25
2023-05-16T17:37:30.490Z,99799.28
2023-05-16T17:39:57.494Z,99799.94
2023-05-16T17:42:26.065Z,99799.88
2023-05-16T17:44:53.651Z,99801.00
2023-05-16T17:47:20.680Z,99805.44
2023-05-16T17:49:47.545Z,99806.31
2023-05-16T17:52:15.016Z,99807.38
2023-05-16T17:54:41.549Z,99803.91
2023-05-16T17:57:09.187Z,99810.72
2023-05-16T17:59:35.622Z,99807.22
2023-05-16T18:02:02.142Z,99810.63
2023-05-16T18:04:28.691Z,99809.56
2023-05-16T18:06:56.176Z,99806.81
2023-05-16T18:09:24.002Z,99814.47
2023-05-16T18:11:51.330Z,99810.88
2023-05-16T18:14:17.871Z,99817.69
2023-05-16T18:16:44.628Z,99821.03
2023-05-16T18:19:11.636Z,99826.94
2023-05-16T18:21:39.526Z,99828.56
2023-05-16T18:24:08.393Z,99828.47
2023-05-16T18:26:35.042Z,99827.59
2023-05-16T18:29:10.930Z,99828.38
2023-05-16T18:31:47.440Z,99825.72
2023-05-16T18:34:14.409Z,99824.47
2023-05-16T18:36:40.917Z,99830.31
2023-05-16T18:39:08.828Z,99834.59
2023-05-16T18:41:35.325Z,99842.94
2023-05-16T18:44:01.788Z,99847.88
2023-05-16T18:46:28.246Z,99842.28
2023-05-16T18:48:57.781Z,99850.44
2023-05-16T18:51:25.169Z,99850.44
2023-05-16T18:53:51.840Z,99857.22
2023-05-16T18:56:26.612Z,99867.53
2023-05-16T18:58:53.659Z,99859.19
2023-05-16T19:01:22.392Z,99861.22
2023-05-16T19:03:49.777Z,99856.84
2023-05-16T19:06:16.303Z,99846.81
2023-05-16T19:08:47.892Z,99854.75
2023-05-16T19:11:15.929Z,99848.44
2023-05-16T19:13:42.496Z,99857.00
2023-05-16T19:16:09.189Z,99860.81
2023-05-16T19:18:35.958Z,99859.91
2023-05-16T19:21:03.547Z,99854.84
2023-05-16T19:23:30.268Z,99859.28
2023-05-16T19:25:57.106Z,99865.09
2023-05-16T19:28:24.665Z,99876.84
2023-05-16T19:30:51.256Z,99873.63
2023-05-16T19:33:17.754Z,99878.84
2023-05-16T19:35:44.287Z,99883.72
2023-05-16T19:38:10.811Z,99877.03
2023-05-16T19:40:37.339Z,99888.03
2023-05-16T19:43:03.826Z,99887.41
2023-05-16T19:45:30.626Z,99896.97
2023-05-16T19:47:57.443Z,99902.34
2023-05-16T19:50:24.061Z,99905.81
2023-05-16T19:52:50.480Z,99916.00
2023-05-16T19:55:17.001Z,99912.09
2023-05-16T19:57:43.513Z,99918.25
2023-05-16T20:00:10.628Z,99926.81
2023-05-16T20:02:37.132Z,99927.53
2023-05-16T20:05:04.545Z,99928.72
2023-05-16T20:07:31.061Z,99923.88
2023-05-16T20:09:57.537Z,99928.97
2023-05-16T20:12:24.001Z,99929.78
2023-05-16T20:14:51.659Z,99936.06
2023-05-16T20:17:18.153Z,99923.38
2023-05-16T20:19:46.287Z,99942.41
2023-05-16T20:22:12.779Z,99944.97
2023-05-16T20:24:39.457Z,99939.53
2023-05-16T20:27:05.968Z,99944.44
2023-05-16T20:29:33.918Z,99941.66
2023-05-16T20:32:00.650Z,99949.63
2023-05-16T20:34:27.899Z,99952.22
2023-05-16T20:36:54.452Z,99954.00
2023-05-16T20:39:20.953Z,99951.41
2023-05-16T20:41:47.596Z,99955.78
2023-05-16T20:44:15.286Z,99956.84
2023-05-16T20:46:43.111Z,99952.38
2023-05-16T20:49:09.963Z,99950.50
2023-05-16T20:51:36.501Z,99957.56
2023-05-16T20:54:03.108Z,99966.22
2023-05-16T20:56:29.787Z,99965.44
2023-05-16T20:58:56.219Z,99968.75
2023-05-16T21:01:22.739Z,99959.19
2023-05-16T21:03:49.273Z,99959.38
2023-05-16T21:06:15.901Z,99963.63
2023-05-16T21:08:42.407Z,99961.16
2023-05-16T21:11:08.858Z,99960.69
2023-05-16T21:13:35.377Z,99965.25
2023-05-16T21:16:01.915Z,99969.72
2023-05-16T21:18:28.414Z,99975.78
2023-05-16T21:20:55.014Z,99972.16
2023-05-16T21:23:21.517Z,99968.47
2023-05-16T21:25:47.963Z,99967.75
2023-05-16T21:28:14.482Z,99975.63
2023-05-16T21:30:41.037Z,99975.63
2023-05-16T21:33:07.578Z,99973.84
2023-05-16T21:35:34.076Z,99978.06
2023-05-16T21:38:00.714Z,99982.31
2023-05-16T21:40:28.738Z,99979.66
2023-05-16T21:42:55.318Z,99974.22
2023-05-16T21:45:21.822Z,99975.81
2023-05-16T21:47:48.579Z,99982.31
2023-05-16T21:50:15.388Z,99982.31
2023-05-16T21:52:42.081Z,99986.69
2023-05-16T21:55:08.959Z,99990.25
2023-05-16T21:57:35.547Z,99985.81
2023-05-16T22:00:06.518Z,99982.16
2023-05-16T22:02:33.614Z,99984.38
2023-05-16T22:05:00.293Z,99981.66
2023-05-16T22:07:30.066Z,99982.38
2023-05-16T22:09:56.928Z,99978.81
2023-05-16T22:12:24.028Z,99979.53
2023-05-16T22:14:51.296Z,99983.09
2023-05-16T22:17:19.465Z,99989.34
2023-05-16T22:19:46.754Z,99986.56
2023-05-16T22:22:15.514Z,99984.81
2023-05-16T22:24:42.153Z,99984.44
2023-05-16T22:27:08.612Z,99980.75
2023-05-16T22:29:38.160Z,99973.63
2023-05-16T22:32:06.961Z,99980.38
2023-05-16T22:34:34.240Z,99977.97
2023-05-16T22:37:00.726Z,99990.22
2023-05-16T22:39:27.269Z,99971.09
2023-05-16T22:41:53.776Z,99981.56
2023-05-16T22:44:20.271Z,99981.06
2023-05-16T22:46:46.706Z,99973.63
2023-05-16T22:49:13.275Z,99979.69
2023-05-16T22:51:39.772Z,99982.38
2023-05-16T22:54:06.325Z,99974.50
2023-05-16T22:56:32.754Z,99967.41
2023-05-16T22:58:59.205Z,99977.50
2023-05-16T23:01:25.677Z,99986.56
2023-05-16T23:03:52.212Z,99992.91
2023-05-16T23:06:18.663Z,100002.19
2023-05-16T23:08:45.161Z,100010.75
2023-05-16T23:11:11.782Z,100016.72
2023-05-16T23:13:38.236Z,100040.03
2023-05-16T23:16:04.945Z,100047.78
2023-05-16T23:18:31.552Z,100043.81
2023-05-16T23:20:58.147Z,100054.06
2023-05-16T23:23:24.676Z,100059.97
2023-05-16T23:25:51.161Z,100059.84
2023-05-16T23:28:18.892Z,100064.53
2023-05-16T23:30:45.577Z,100064.97
2023-05-16T23:33:14.074Z,100062.56
2023-05-16T23:35:40.909Z,100066.25
2023-05-16T23:38:07.383Z,100074.78
2023-05-16T23:40:33.877Z,100071.13
2023-05-16T23:43:00.347Z,100064.66
2023-05-16T23:45:27.995Z,100060.59
2023-05-16T23:47:54.630Z,100073.63
2023-05-16T23:50:22.092Z,100068.63
2023-05-16T23:52:48.580Z,100073.22
2023-05-16T23:55:16.406Z,100068.56
2023-05-16T23:57:42.836Z,100051.81
